Indalo Segundo — CNA4665 — position and weather

sailwx.info

Track history (hours):
 
Tides and Currents Weather Stations Pressure Air Temp Water Temp Dewpoint Dewpoint Depression Visibility Wind Speed Wind Dir Waves Ship Positions

Indalo Segundo

Last reported at 2017-Oct-26 23:55 UTC. Time now 2017-Nov-22 09:23 UTC.
Position N 34°11' W 007°47'.
Warning: this ship's position is 26 days out of date.

Length 25 m; draft 3 m.

Type: Fishing. MMSI: 242131100.

Date/timePositionNaut miles runAvg speedWind from/ knotsBaromVisibWave heightAir tempDewpointWater temp
2017-Oct-26 23:55N 34°11' W 007°47'1 2.8
2017-Oct-26 23:30N 34°11' W 007°48'  
2017-Oct-24 18:40N 34°11' W 007°48'0 2.8
2017-Oct-24 18:29N 34°11' W 007°48'1 2.8
2017-Oct-24 18:00N 34°12' W 007°46'1 2.8
2017-Oct-24 17:30N 34°12' W 007°45'11 2.7
2017-Oct-24 13:20N 34°16' W 007°31'1 2.8
2017-Oct-24 12:59N 34°16' W 007°30'2 2.7
2017-Oct-24 12:22N 34°16' W 007°28'6 8.1
2017-Oct-24 11:36N 34°17' W 007°21'1 8.0
2017-Oct-24 11:26N 34°16' W 007°19'1 0.4
2017-Oct-24 10:07N 34°16' W 007°19'1 2.9
2017-Oct-24 09:44N 34°17' W 007°17'2 3.0
2017-Oct-24 09:01N 34°17' W 007°15'0 2.7
2017-Oct-24 09:00N 34°17' W 007°15'2 3.0
2017-Oct-24 08:24N 34°18' W 007°13'1 2.6
2017-Oct-24 08:00N 34°18' W 007°12'  
Track history (hours):
 
Tides and Currents Weather Stations Pressure Air Temp Water Temp Dewpoint Dewpoint Depression Visibility Wind Speed Wind Dir Waves Ship Positions

Indalo Segundo

Last reported at 2017-Oct-26 23:55 UTC. Time now 2017-Nov-22 09:23 UTC.
Position N 34°11' W 007°47'.
Warning: this ship's position is 26 days out of date.

Length 25 m; draft 3 m.

Type: Fishing. MMSI: 242131100.

Date/timePositionNaut miles runAvg speedWind from/ knotsBaromVisibWave heightAir tempDewpointWater temp
2017-Oct-26 23:55N 34°11' W 007°47'1 2.8
2017-Oct-26 23:30N 34°11' W 007°48'  
2017-Oct-24 18:40N 34°11' W 007°48'0 2.8
2017-Oct-24 18:29N 34°11' W 007°48'1 2.8
2017-Oct-24 18:00N 34°12' W 007°46'1 2.8
2017-Oct-24 17:30N 34°12' W 007°45'11 2.7
2017-Oct-24 13:20N 34°16' W 007°31'1 2.8
2017-Oct-24 12:59N 34°16' W 007°30'2 2.7
2017-Oct-24 12:22N 34°16' W 007°28'6 8.1
2017-Oct-24 11:36N 34°17' W 007°21'1 8.0
2017-Oct-24 11:26N 34°16' W 007°19'1 0.4
2017-Oct-24 10:07N 34°16' W 007°19'1 2.9
2017-Oct-24 09:44N 34°17' W 007°17'2 3.0
2017-Oct-24 09:01N 34°17' W 007°15'0 2.7
2017-Oct-24 09:00N 34°17' W 007°15'2 3.0
2017-Oct-24 08:24N 34°18' W 007°13'1 2.6
2017-Oct-24 08:00N 34°18' W 007°12'  

Dump ship's entire track history